Etusivu
METAR-TAF:

METAR-TAF

Lentoasemat :

Tachikawa, Japani

Leveyspiiri: 35-42N, Pituuspiiri: 139-24E, korkeus merenpinnasta: 95 m

Tämänhetkinen sää

Tämä raportti tehtiin 5 tuntia ja 28 minuuttia sitten, kello 06.40 UTC
Tuuli 3 kn pohjoisesta/koillisesta, vaihdellen pohjoisen ja koillisen välillä
Lämpötila 13°C
Kosteus 72%
Ilmanpaine 1018 hPa
Näkyvyys 10 km tai enemmän
Muutamia pilviä 2500 ft:n korkeudessa
Hajonneita pilviä 3000 ft:n korkeudessa
Hajonneita pilviä 6000 ft:n korkeudessa

METAR: RJTC 130640Z 02003KT 350V050 9999 FEW025 BKN030 BKN060 13/08 Q1018 RMK 1CU025 6SC030 6SC060 A3008

Aika: 21:08 (12:08 UTC)


TAF: puuttuu

Säähavainnot ja -ennusteet yli 4000 lentoasemalta (METAR- ja TAF-raportit).

Käytössä olevat sääasemat on merkitty karttaan keltaisilla ja punaisilla pisteillä.

Aseta hiiri pisteen päälle nähdäksesi sääaseman nimen.

Klikkaa sitten nähdäksesi säähavainnot ja -ennusteet.

Kartan vaihtaminen: klikkaa mustalla rastilla varustettuja vihreitä pisteitä, niin voit zoomata sisään; viivalla varustettua vihreää pistettä, niin voit zoomata ulos tai vihreitä nuolia, niin pääset viereisille kartoille.


METAR-TAF: